Time;durP1;ratioP1;P1;durP2;ratioP2;P2;SDS_P1;SDS_P2;PMS_P1;PMS_P2;Temp;Humidity;BMP_temperature;BMP_pressure;BME280_temperature;BME280_humidity;BME280_pressure;Samples;Min_cycle;Max_cycle;Signal;HPM_P1;HPM_P2
2021/05/01 00:00:00;;;;;;;6.83;5.63;;;;;;;14.58;100.00;93818.91;4993586;28;20220;-84
2021/05/01 00:02:27;;;;;;;8.23;5.37;;;;;;;14.59;100.00;93832.91;4993593;28;20244;-85
2021/05/01 00:04:54;;;;;;;7.53;5.60;;;;;;;14.68;100.00;93816.38;4993749;28;20287;-84
2021/05/01 00:07:21;;;;;;;8.83;5.27;;;;;;;14.73;100.00;93836.81;4993292;28;20389;-84
2021/05/01 00:09:48;;;;;;;14.60;8.97;;;;;;;14.56;100.00;93851.91;4993346;28;20206;-83
2021/05/01 00:12:16;;;;;;;22.67;17.03;;;;;;;14.49;100.00;93881.09;4993430;28;20294;-85
2021/05/01 00:14:42;;;;;;;11.97;10.07;;;;;;;14.48;100.00;93900.66;4993327;28;20283;-85
2021/05/01 00:17:09;;;;;;;10.77;7.40;;;;;;;14.61;100.00;93913.56;4993243;28;20244;-84
2021/05/01 00:19:36;;;;;;;10.40;8.00;;;;;;;14.44;100.00;93912.72;4993390;28;20297;-85
2021/05/01 00:22:03;;;;;;;16.93;13.40;;;;;;;14.15;100.00;93944.47;4992980;28;20292;-85
2021/05/01 00:24:30;;;;;;;35.60;31.63;;;;;;;13.99;100.00;93987.50;4993294;28;20625;-84
2021/05/01 00:26:57;;;;;;;19.97;15.83;;;;;;;13.78;100.00;94057.59;4993064;28;20224;-84
2021/05/01 00:29:24;;;;;;;9.17;7.07;;;;;;;13.85;100.00;94210.59;4993038;28;20243;-84
2021/05/01 00:31:51;;;;;;;6.57;5.70;;;;;;;13.95;100.00;94312.00;4993036;28;20204;-85
2021/05/01 00:34:18;;;;;;;11.53;7.27;;;;;;;14.16;100.00;94299.28;4993212;28;20601;-85
2021/05/01 00:36:45;;;;;;;7.73;6.23;;;;;;;14.46;100.00;94262.97;4993048;28;20198;-85
2021/05/01 00:39:12;;;;;;;10.97;7.03;;;;;;;14.50;100.00;94219.19;4992742;28;20204;-85
2021/05/01 00:41:39;;;;;;;11.17;7.43;;;;;;;14.22;100.00;94230.47;4993097;28;20204;-85
2021/05/01 00:44:07;;;;;;;10.57;6.47;;;;;;;14.18;100.00;94247.81;4993224;28;20268;-86
2021/05/01 00:46:34;;;;;;;6.70;6.10;;;;;;;14.07;100.00;94282.97;4992958;28;20198;-85
2021/05/01 00:49:01;;;;;;;6.60;5.70;;;;;;;14.20;100.00;94305.72;4992603;28;20202;-86
2021/05/01 00:51:28;;;;;;;9.53;5.30;;;;;;;14.34;100.00;94316.84;4993196;28;20357;-86
2021/05/01 00:53:55;;;;;;;8.33;5.83;;;;;;;14.31;100.00;94312.84;4992988;28;20282;-86
2021/05/01 00:56:22;;;;;;;9.67;5.60;;;;;;;14.19;100.00;94336.59;4992989;28;20202;-86
2021/05/01 00:58:49;;;;;;;6.20;5.60;;;;;;;14.38;100.00;94349.75;4992709;28;20294;-86
2021/05/01 01:01:20;;;;;;;9.70;5.97;;;;;;;14.29;100.00;94357.19;4993044;28;20293;-86
2021/05/01 01:03:49;;;;;;;8.43;5.27;;;;;;;14.42;100.00;94356.97;4992606;28;20195;-86
2021/05/01 01:06:16;;;;;;;8.63;6.23;;;;;;;14.33;100.00;94341.69;4992748;28;20200;-86
2021/05/01 01:08:43;;;;;;;7.77;5.33;;;;;;;14.13;100.00;94368.41;4992312;28;20228;-86
2021/05/01 01:11:11;;;;;;;9.10;5.67;;;;;;;14.25;100.00;94408.88;4992672;28;20725;-86
2021/05/01 01:13:38;;;;;;;6.97;6.07;;;;;;;14.27;100.00;94415.56;4992686;28;20212;-86
2021/05/01 01:16:05;;;;;;;6.27;5.63;;;;;;;14.23;100.00;94416.22;4992544;28;20237;-85
2021/05/01 01:18:33;;;;;;;6.77;5.60;;;;;;;14.14;100.00;94417.59;4992115;28;20687;-86
2021/05/01 01:21:03;;;;;;;10.87;6.70;;;;;;;14.31;100.00;94428.31;4992545;28;20207;-86
2021/05/01 01:23:31;;;;;;;8.70;5.77;;;;;;;14.19;100.00;94431.72;4992645;28;20198;-86
2021/05/01 01:25:58;;;;;;;10.60;6.10;;;;;;;14.09;100.00;94454.44;4992482;28;20604;-85
2021/05/01 01:28:26;;;;;;;9.53;5.83;;;;;;;14.13;100.00;94482.00;4992051;28;20322;-85
2021/05/01 01:30:53;;;;;;;6.87;5.43;;;;;;;14.10;100.00;94495.66;4992711;28;20255;-85
2021/05/01 01:33:21;;;;;;;7.40;5.43;;;;;;;14.05;100.00;94493.69;4992497;28;20584;-85
2021/05/01 01:35:48;;;;;;;8.43;6.23;;;;;;;14.03;100.00;94504.50;4992317;28;20686;-85
2021/05/01 01:38:15;;;;;;;9.53;5.33;;;;;;;13.95;100.00;94525.91;4991999;28;20287;-86
2021/05/01 01:40:42;;;;;;;9.20;5.87;;;;;;;13.80;100.00;94554.53;4994537;28;20205;-86
2021/05/01 01:43:09;;;;;;;7.43;5.57;;;;;;;13.70;100.00;94614.97;4996105;28;20577;-86
2021/05/01 01:45:36;;;;;;;7.93;6.47;;;;;;;13.68;100.00;94685.66;4996348;28;20292;-85
2021/05/01 01:48:04;;;;;;;11.13;5.83;;;;;;;13.63;100.00;94725.09;4995957;28;20235;-85
2021/05/01 01:50:31;;;;;;;9.60;5.77;;;;;;;13.67;100.00;94711.25;4995931;28;20302;-84
2021/05/01 01:52:58;;;;;;;8.13;6.13;;;;;;;13.74;100.00;94698.81;4996065;28;20207;-86
2021/05/01 01:55:25;;;;;;;9.77;5.80;;;;;;;14.04;100.00;94661.16;4996627;28;20299;-85
2021/05/01 01:57:54;;;;;;;9.43;5.63;;;;;;;13.94;100.00;94618.59;4996237;28;20210;-85
2021/05/01 02:00:23;;;;;;;6.47;5.90;;;;;;;13.79;100.00;94625.03;4996063;28;20204;-84
2021/05/01 02:02:50;;;;;;;8.17;5.93;;;;;;;13.74;100.00;94650.47;4995632;28;20283;-85
2021/05/01 02:05:18;;;;;;;6.13;5.63;;;;;;;13.66;100.00;94674.53;4995959;28;20283;-85
2021/05/01 02:07:45;;;;;;;8.13;5.30;;;;;;;13.85;100.00;94670.06;4995835;28;20600;-84
2021/05/01 02:10:13;;;;;;;7.60;5.67;;;;;;;13.75;100.00;94679.31;4995482;28;20231;-85
2021/05/01 02:12:41;;;;;;;6.60;5.57;;;;;;;13.90;100.00;94676.31;4995934;28;20295;-85
2021/05/01 02:15:13;;;;;;;6.67;6.07;;;;;;;13.89;100.00;94669.44;4995859;28;20196;-85
2021/05/01 02:17:41;;;;;;;9.43;5.47;;;;;;;13.76;100.00;94653.72;4995534;28;20255;-85
2021/05/01 02:20:11;;;;;;;7.53;5.47;;;;;;;13.69;100.00;94680.19;4995864;28;20676;-86
2021/05/01 02:22:38;;;;;;;5.93;5.30;;;;;;;13.71;100.00;94678.09;4995528;28;20213;-85
2021/05/01 02:25:08;;;;;;;8.87;5.90;;;;;;;13.78;100.00;94670.13;4995579;28;20204;-85
2021/05/01 02:27:35;;;;;;;8.00;5.53;;;;;;;13.78;100.00;94646.38;4995668;28;20705;-85
2021/05/01 02:30:02;;;;;;;8.53;6.07;;;;;;;13.88;100.00;94649.31;4995436;28;20215;-85
2021/05/01 02:32:30;;;;;;;6.27;5.67;;;;;;;13.96;100.00;94648.25;4995093;28;20291;-85
2021/05/01 02:34:56;;;;;;;5.70;5.20;;;;;;;14.08;100.00;94651.75;4995597;28;20233;-85
2021/05/01 02:37:23;;;;;;;7.33;4.80;;;;;;;14.07;100.00;94660.72;4995326;28;20255;-85
2021/05/01 02:39:50;;;;;;;7.07;6.20;;;;;;;14.07;100.00;94710.13;4995317;28;20294;-84
2021/05/01 02:42:17;;;;;;;8.57;6.57;;;;;;;14.21;100.00;94722.97;4995067;28;20303;-85
2021/05/01 02:44:44;;;;;;;8.77;5.70;;;;;;;14.17;100.00;94703.28;4995122;28;20583;-85
2021/05/01 02:47:11;;;;;;;12.27;6.63;;;;;;;14.19;100.00;94716.28;4994870;28;20324;-85
2021/05/01 02:49:39;;;;;;;5.93;5.27;;;;;;;14.13;100.00;94736.47;4995069;28;20199;-85
2021/05/01 02:52:06;;;;;;;8.20;5.10;;;;;;;13.94;100.00;94756.75;4993586;28;20236;-85
2021/05/01 02:54:32;;;;;;;9.20;5.50;;;;;;;13.82;100.00;94798.09;4994904;28;20205;-84
2021/05/01 02:56:59;;;;;;;9.37;5.40;;;;;;;13.76;100.00;94839.34;4994800;28;20669;-84
2021/05/01 02:59:26;;;;;;;8.53;5.60;;;;;;;13.81;100.00;94867.75;4994865;28;20200;-85
2021/05/01 03:01:53;;;;;;;11.87;5.30;;;;;;;13.84;100.00;94896.38;4994822;28;20240;-85
2021/05/01 03:04:20;;;;;;;7.73;5.93;;;;;;;13.78;100.00;94945.56;4994972;28;20290;-85
2021/05/01 03:06:48;;;;;;;9.60;5.43;;;;;;;13.70;100.00;95003.09;4994650;28;20752;-84
2021/05/01 03:09:15;;;;;;;14.40;8.67;;;;;;;13.70;100.00;95066.47;4994618;28;20233;-85
2021/05/01 03:11:42;;;;;;;9.37;7.87;;;;;;;13.70;100.00;95082.31;4994450;28;20210;-83
2021/05/01 03:14:09;;;;;;;13.03;8.57;;;;;;;13.67;100.00;95115.19;4994361;28;20319;-84
2021/05/01 03:16:36;;;;;;;22.23;14.90;;;;;;;13.63;100.00;95123.75;4994437;28;20240;-85
2021/05/01 03:19:03;;;;;;;18.10;10.93;;;;;;;13.60;100.00;95196.25;4994321;28;20743;-85
2021/05/01 03:21:29;;;;;;;15.57;8.47;;;;;;;13.66;100.00;95184.88;4994694;28;20227;-84
2021/05/01 03:23:57;;;;;;;8.23;5.67;;;;;;;13.84;100.00;95173.69;4994483;28;20294;-85
2021/05/01 03:26:24;;;;;;;8.83;5.10;;;;;;;13.84;100.00;95151.75;4994414;28;20232;-84
2021/05/01 03:28:51;;;;;;;11.17;5.17;;;;;;;13.94;100.00;95282.38;4994383;28;20386;-85
2021/05/01 03:31:18;;;;;;;13.37;6.00;;;;;;;14.02;100.00;95231.16;4994277;28;20207;-85
2021/05/01 03:33:45;;;;;;;10.40;4.70;;;;;;;13.99;100.00;95195.41;4994002;28;20679;-84
2021/05/01 03:36:12;;;;;;;11.13;6.13;;;;;;;14.02;100.00;95213.47;4994139;28;20199;-84
2021/05/01 03:38:39;;;;;;;11.13;6.27;;;;;;;14.06;100.00;95197.22;4994038;28;20286;-85
2021/05/01 03:41:06;;;;;;;14.23;6.30;;;;;;;14.29;100.00;95128.84;4993839;28;20212;-85
2021/05/01 03:43:33;;;;;;;7.70;6.43;;;;;;;14.34;100.00;95081.47;4994200;28;20205;-85
2021/05/01 03:46:01;;;;;;;10.33;6.17;;;;;;;14.41;100.00;95016.16;4994079;28;20627;-84
2021/05/01 03:48:28;;;;;;;8.07;5.37;;;;;;;14.20;100.00;95012.03;4993414;28;20314;-84
2021/05/01 03:50:54;;;;;;;13.93;7.97;;;;;;;14.33;100.00;95042.84;4993969;28;20739;-84
2021/05/01 03:53:22;;;;;;;13.57;9.53;;;;;;;14.34;100.00;95038.34;4994049;28;20213;-85
2021/05/01 03:55:48;;;;;;;11.47;8.03;;;;;;;14.12;100.00;95053.72;4993912;28;20204;-84
2021/05/01 03:58:16;;;;;;;16.37;8.67;;;;;;;14.13;100.00;95082.59;4993612;28;20196;-85
2021/05/01 04:00:43;;;;;;;9.47;7.03;;;;;;;14.26;100.00;95073.78;4993673;28;20200;-85
2021/05/01 04:03:10;;;;;;;11.10;9.63;;;;;;;14.27;100.00;95039.22;4993422;28;20240;-85
2021/05/01 04:05:37;;;;;;;16.07;12.23;;;;;;;14.49;100.00;95055.56;4993725;28;20262;-86
2021/05/01 04:08:04;;;;;;;14.03;8.13;;;;;;;14.40;100.00;95064.75;4993407;28;20365;-84
2021/05/01 04:10:31;;;;;;;13.47;5.97;;;;;;;14.48;100.00;95093.59;4994002;28;20287;-84
2021/05/01 04:12:57;;;;;;;10.10;6.80;;;;;;;14.46;100.00;95068.41;4993219;28;20254;-85
2021/05/01 04:15:25;;;;;;;11.00;9.03;;;;;;;14.35;100.00;95084.94;4993199;28;20293;-84
2021/05/01 04:17:53;;;;;;;27.53;24.70;;;;;;;14.24;100.00;95110.19;4993431;28;20701;-85
2021/05/01 04:20:20;;;;;;;16.27;14.60;;;;;;;14.43;100.00;95141.00;4993970;28;20206;-83
2021/05/01 04:22:48;;;;;;;10.07;6.90;;;;;;;14.56;100.00;95123.50;4993954;28;20668;-83
2021/05/01 04:25:15;;;;;;;8.70;5.90;;;;;;;14.66;100.00;95107.97;4994000;28;20201;-84
2021/05/01 04:27:42;;;;;;;16.50;6.60;;;;;;;14.66;100.00;95098.22;4993512;28;20235;-83
2021/05/01 04:30:10;;;;;;;8.13;6.77;;;;;;;14.72;100.00;95109.75;4993605;28;20210;-83
2021/05/01 04:32:38;;;;;;;12.70;6.50;;;;;;;14.84;100.00;95145.09;4993175;28;20206;-84
2021/05/01 04:35:06;;;;;;;23.97;15.77;;;;;;;14.88;100.00;95158.72;4993054;28;20204;-85
2021/05/01 04:37:33;;;;;;;24.60;14.90;;;;;;;14.98;100.00;95182.88;4993191;28;20605;-84
2021/05/01 04:40:00;;;;;;;24.53;16.70;;;;;;;15.05;100.00;95210.09;4993138;28;20284;-85
2021/05/01 04:42:27;;;;;;;11.43;6.47;;;;;;;15.13;100.00;95193.16;4992898;28;20565;-85
2021/05/01 04:44:54;;;;;;;8.70;6.13;;;;;;;15.30;100.00;95093.69;4993319;28;20629;-83
2021/05/01 04:47:20;;;;;;;9.97;6.27;;;;;;;15.34;100.00;95100.16;4993382;28;20250;-84
2021/05/01 04:49:48;;;;;;;8.77;5.43;;;;;;;15.42;100.00;95129.03;4992958;28;20219;-85
2021/05/01 04:52:15;;;;;;;12.93;5.73;;;;;;;15.52;100.00;95115.31;4992678;28;20242;-85
2021/05/01 04:54:42;;;;;;;10.53;7.20;;;;;;;15.46;100.00;95159.34;4996971;28;20294;-84
2021/05/01 04:57:09;;;;;;;9.70;7.47;;;;;;;15.68;100.00;95297.53;5010593;28;20215;-83
2021/05/01 04:59:35;;;;;;;10.40;6.93;;;;;;;15.60;100.00;95381.72;5011728;28;20672;-85
2021/05/01 05:02:07;;;;;;;12.97;8.07;;;;;;;15.51;100.00;95388.25;5011712;28;20200;-84
2021/05/01 05:04:34;;;;;;;11.50;7.83;;;;;;;15.43;100.00;95389.31;5022739;28;20216;-85
2021/05/01 05:07:02;;;;;;;10.70;6.67;;;;;;;15.42;100.00;95380.56;5030861;28;20297;-85
2021/05/01 05:09:29;;;;;;;8.97;6.87;;;;;;;15.59;100.00;95385.38;5030684;28;20289;-83
2021/05/01 05:11:56;;;;;;;12.63;8.60;;;;;;;15.81;100.00;95407.91;5030986;28;20237;-85
2021/05/01 05:14:22;;;;;;;8.07;6.93;;;;;;;16.01;100.00;95444.09;5021134;28;20299;-85
2021/05/01 05:16:49;;;;;;;10.70;7.37;;;;;;;16.05;100.00;95469.97;5010979;28;20329;-83
2021/05/01 05:19:17;;;;;;;10.23;6.63;;;;;;;16.19;100.00;95536.97;5011518;28;20226;-84
2021/05/01 05:21:43;;;;;;;11.47;8.87;;;;;;;16.25;100.00;95578.56;5010956;28;20721;-83
2021/05/01 05:24:11;;;;;;;19.07;11.67;;;;;;;16.33;100.00;95654.41;5011116;28;20762;-83
2021/05/01 05:26:39;;;;;;;15.97;9.30;;;;;;;16.46;100.00;95770.25;5011196;28;20290;-84
2021/05/01 05:29:07;;;;;;;10.73;6.93;;;;;;;16.60;100.00;95820.44;5011067;28;20233;-85
2021/05/01 05:31:34;;;;;;;10.97;7.20;;;;;;;16.80;100.00;95892.06;5011318;28;20234;-85
2021/05/01 05:34:01;;;;;;;10.83;8.17;;;;;;;16.92;100.00;95920.63;5011057;28;20200;-84
2021/05/01 05:36:28;;;;;;;14.00;8.20;;;;;;;16.92;100.00;95855.09;5010270;28;20294;-85
2021/05/01 05:38:55;;;;;;;12.47;8.33;;;;;;;17.06;100.00;95757.63;5011978;28;20203;-86
2021/05/01 05:41:24;;;;;;;16.10;9.80;;;;;;;17.32;100.00;95653.09;5011902;28;20248;-86
2021/05/01 05:43:51;;;;;;;17.17;12.97;;;;;;;17.32;100.00;95542.38;5011693;28;20203;-84
2021/05/01 05:46:18;;;;;;;32.10;14.57;;;;;;;17.52;100.00;95458.97;5012068;28;20657;-83
2021/05/01 05:48:45;;;;;;;15.17;9.40;;;;;;;17.65;100.00;95367.69;5011537;28;20314;-83
2021/05/01 05:51:12;;;;;;;17.93;12.23;;;;;;;17.61;100.00;95350.56;5011577;28;20235;-83
2021/05/01 05:53:40;;;;;;;84.97;54.70;;;;;;;17.72;100.00;95409.06;5011746;28;20199;-84
2021/05/01 05:56:07;;;;;;;32.53;23.67;;;;;;;17.77;100.00;95360.63;5027928;28;20202;-83
2021/05/01 05:58:36;;;;;;;33.90;21.60;;;;;;;17.96;100.00;95362.16;5031419;28;20256;-83
2021/05/01 06:01:03;;;;;;;20.20;12.27;;;;;;;18.15;100.00;95399.31;5031250;28;20241;-83
2021/05/01 06:03:31;;;;;;;12.13;10.50;;;;;;;18.36;100.00;95376.69;5031357;28;20238;-83
2021/05/01 06:06:03;;;;;;;11.57;8.37;;;;;;;18.59;100.00;95363.44;5031739;28;20285;-83
2021/05/01 06:08:31;;;;;;;15.73;8.87;;;;;;;18.78;100.00;95377.50;5031754;28;20229;-83
2021/05/01 06:11:01;;;;;;;17.73;10.73;;;;;;;18.94;100.00;95427.34;5031545;28;20282;-83
2021/05/01 06:13:32;;;;;;;9.53;8.10;;;;;;;19.06;100.00;95424.72;5031248;28;20209;-84
2021/05/01 06:16:01;;;;;;;16.67;9.53;;;;;;;19.07;100.00;95468.94;5031683;28;20266;-84
2021/05/01 06:18:33;;;;;;;12.33;8.93;;;;;;;19.19;100.00;95520.38;5030918;28;20180;-84
2021/05/01 06:21:00;;;;;;;13.07;8.60;;;;;;;19.23;100.00;95531.38;5031584;28;20270;-84
2021/05/01 06:23:27;;;;;;;10.87;6.57;;;;;;;19.38;100.00;95552.22;5030842;28;20233;-84
2021/05/01 06:25:55;;;;;;;12.43;6.80;;;;;;;19.46;100.00;95450.59;5032042;28;20234;-83
2021/05/01 06:28:22;;;;;;;9.87;5.33;;;;;;;19.48;100.00;95411.22;5034417;28;20231;-84
2021/05/01 06:30:50;;;;;;;8.53;4.10;;;;;;;19.57;100.00;95321.03;5034736;28;20234;-84
2021/05/01 06:33:18;;;;;;;9.37;4.27;;;;;;;19.73;100.00;95298.16;5034283;28;20201;-84
2021/05/01 06:35:47;;;;;;;9.70;4.67;;;;;;;20.03;100.00;95273.91;5034713;28;20301;-83
2021/05/01 06:38:14;;;;;;;8.93;4.27;;;;;;;20.06;100.00;95327.56;5034381;28;20205;-83
2021/05/01 06:40:42;;;;;;;11.63;4.57;;;;;;;20.17;100.00;95329.34;5034582;28;20241;-84
2021/05/01 06:43:14;;;;;;;8.77;4.90;;;;;;;20.31;100.00;95342.38;5034336;28;20195;-84
2021/05/01 06:45:43;;;;;;;7.70;4.70;;;;;;;20.45;100.00;95327.66;5016135;28;20249;-84
2021/05/01 06:48:15;;;;;;;11.87;5.97;;;;;;;20.67;100.00;95360.59;5020493;28;20714;-85
2021/05/01 06:50:43;;;;;;;7.97;4.67;;;;;;;20.80;100.00;95380.81;5034380;28;20191;-84
2021/05/01 06:53:23;;;;;;;12.87;6.17;;;;;;;20.83;100.00;95384.88;5034307;28;20822;-84
2021/05/01 06:55:52;;;;;;;8.43;5.07;;;;;;;21.09;100.00;95384.19;5034425;28;20259;-84
2021/05/01 06:58:22;;;;;;;8.67;5.10;;;;;;;21.27;100.00;95395.66;5020403;28;20200;-84
2021/05/01 07:00:50;;;;;;;10.13;4.60;;;;;;;21.54;100.00;95364.47;5014725;28;20275;-85
2021/05/01 07:03:18;;;;;;;10.13;4.17;;;;;;;21.87;100.00;95341.31;5014325;28;20204;-84
2021/05/01 07:05:48;;;;;;;16.27;5.13;;;;;;;22.26;100.00;95306.34;5014121;28;20295;-85
2021/05/01 07:08:15;;;;;;;12.33;4.33;;;;;;;22.38;100.00;95290.94;5014287;28;20235;-84
2021/05/01 07:10:42;;;;;;;7.50;4.70;;;;;;;22.64;100.00;95296.47;5014365;28;20206;-84
2021/05/01 07:13:14;;;;;;;7.10;4.33;;;;;;;22.72;100.00;95290.59;5014324;28;20204;-84
2021/05/01 07:15:41;;;;;;;9.43;4.90;;;;;;;22.83;100.00;95280.78;5013982;28;20180;-85
2021/05/01 07:18:10;;;;;;;7.73;3.80;;;;;;;22.95;100.00;95260.78;5014418;28;20187;-85
2021/05/01 07:20:37;;;;;;;12.30;7.73;;;;;;;23.20;100.00;95267.31;5014181;28;20200;-85
2021/05/01 07:23:05;;;;;;;8.07;4.30;;;;;;;22.97;100.00;95285.44;5014203;28;20287;-85
2021/05/01 07:25:33;;;;;;;9.63;5.30;;;;;;;22.86;100.00;95326.63;5013723;28;20282;-86
2021/05/01 07:28:04;;;;;;;10.67;7.13;;;;;;;22.99;100.00;95363.69;5014237;28;20657;-86
2021/05/01 07:30:32;;;;;;;24.50;14.80;;;;;;;23.22;100.00;95380.44;5014353;28;20554;-85
2021/05/01 07:33:03;;;;;;;27.00;12.97;;;;;;;23.01;100.00;95374.16;5012947;28;20206;-84
2021/05/01 07:35:31;;;;;;;14.03;8.47;;;;;;;22.82;100.00;95416.59;5012549;28;20226;-85
2021/05/01 07:38:06;;;;;;;14.57;7.13;;;;;;;22.57;100.00;95440.50;5012969;28;20199;-86
2021/05/01 07:40:34;;;;;;;22.70;13.93;;;;;;;22.75;100.00;95438.22;5013880;28;20250;-86
2021/05/01 07:43:03;;;;;;;12.80;8.50;;;;;;;22.94;100.00;95430.66;5013855;28;20310;-85
2021/05/01 07:45:30;;;;;;;12.07;6.90;;;;;;;23.04;100.00;95403.13;5013631;28;20195;-85
2021/05/01 07:47:57;;;;;;;8.03;6.97;;;;;;;23.11;100.00;95382.25;5014145;28;20231;-86
2021/05/01 07:50:24;;;;;;;12.13;6.80;;;;;;;23.25;100.00;95393.34;5013610;28;20237;-85
2021/05/01 07:52:53;;;;;;;18.73;12.03;;;;;;;23.30;100.00;95358.50;5013807;28;20210;-85
2021/05/01 07:55:20;;;;;;;32.57;22.70;;;;;;;23.49;100.00;95348.13;5013851;28;20206;-85
2021/05/01 07:57:49;;;;;;;25.20;20.07;;;;;;;23.45;100.00;95323.72;5013848;28;20631;-86
2021/05/01 08:00:17;;;;;;;10.53;8.13;;;;;;;23.78;100.00;95296.75;5013757;28;20217;-86
2021/05/01 08:02:44;;;;;;;13.30;6.37;;;;;;;23.98;100.00;95255.72;5013637;28;20291;-85
2021/05/01 08:05:11;;;;;;;11.33;6.13;;;;;;;23.77;100.00;95271.78;5013192;28;20203;-86
2021/05/01 08:07:39;;;;;;;9.20;6.03;;;;;;;23.55;100.00;95281.91;5013292;28;20261;-86
2021/05/01 08:10:07;;;;;;;15.40;7.17;;;;;;;23.35;100.00;95329.03;5013192;28;20290;-85
2021/05/01 08:12:37;;;;;;;14.07;7.67;;;;;;;23.11;100.00;95368.88;5013454;28;20195;-85
2021/05/01 08:15:09;;;;;;;11.13;8.03;;;;;;;22.91;100.00;95425.78;5013274;28;20290;-86
2021/05/01 08:17:40;;;;;;;8.80;6.77;;;;;;;22.82;100.00;95410.44;5013076;28;20231;-86
2021/05/01 08:20:08;;;;;;;16.90;7.60;;;;;;;23.01;100.00;95388.38;5013498;28;20640;-86
2021/05/01 08:22:36;;;;;;;11.57;7.53;;;;;;;23.35;100.00;95337.09;5013029;28;20199;-86
2021/05/01 08:25:07;;;;;;;17.97;10.63;;;;;;;23.69;100.00;95317.91;5013539;28;20238;-86
2021/05/01 08:27:34;;;;;;;12.47;6.07;;;;;;;23.77;100.00;95282.53;5013193;28;20215;-86
2021/05/01 08:30:01;;;;;;;12.43;7.83;;;;;;;23.71;100.00;95257.56;5013009;28;20195;-86
2021/05/01 08:32:29;;;;;;;20.73;13.07;;;;;;;23.83;100.00;95254.63;5012912;28;20243;-86
2021/05/01 08:34:56;;;;;;;15.27;9.33;;;;;;;24.11;100.00;95228.34;5012914;28;20281;-86
2021/05/01 08:37:23;;;;;;;16.27;7.17;;;;;;;24.39;100.00;95224.28;5012907;28;20261;-86
2021/05/01 08:39:49;;;;;;;12.90;7.37;;;;;;;24.30;100.00;95218.66;5012825;28;20203;-85
2021/05/01 08:42:17;;;;;;;14.73;6.10;;;;;;;24.11;100.00;95228.34;5012530;28;20239;-86
2021/05/01 08:44:44;;;;;;;31.47;23.70;;;;;;;24.05;100.00;95221.38;5012997;28;20204;-87
2021/05/01 08:47:11;;;;;;;13.40;9.60;;;;;;;24.26;100.00;95219.47;5012879;28;20645;-86
2021/05/01 08:49:39;;;;;;;12.20;4.73;;;;;;;24.43;100.00;95215.44;5012769;28;20663;-86
2021/05/01 08:52:06;;;;;;;23.13;12.63;;;;;;;24.69;100.00;95199.25;5012820;28;20204;-86
2021/05/01 08:54:33;;;;;;;20.00;15.13;;;;;;;25.14;100.00;95182.16;5012915;28;20291;-85
2021/05/01 08:57:02;;;;;;;25.13;15.83;;;;;;;25.81;100.00;95161.06;5012833;28;20580;-85
2021/05/01 08:59:30;;;;;;;19.13;12.87;;;;;;;26.37;100.00;95153.53;5012617;28;20664;-86
2021/05/01 09:01:57;;;;;;;10.67;4.93;;;;;;;25.58;100.00;95180.56;5012946;28;20199;-85
2021/05/01 09:04:24;;;;;;;9.10;4.17;;;;;;;25.54;100.00;95179.53;5012700;28;20261;-86
2021/05/01 09:06:52;;;;;;;9.67;5.40;;;;;;;25.37;100.00;95212.97;5012381;28;20200;-86
2021/05/01 09:09:33;;;;;;;9.20;6.63;;;;;;;25.63;100.00;95188.59;5012322;28;20258;-86
2021/05/01 09:12:00;;;;;;;11.77;6.90;;;;;;;25.38;100.00;95195.75;5012237;28;20278;-85
2021/05/01 09:14:29;;;;;;;16.40;10.57;;;;;;;25.04;100.00;95186.75;5012290;28;20199;-86
2021/05/01 09:16:58;;;;;;;10.63;7.20;;;;;;;24.78;100.00;95194.94;5012091;28;20281;-84
2021/05/01 09:19:33;;;;;;;12.43;10.00;;;;;;;24.84;100.00;95195.72;5012691;28;20557;-86
2021/05/01 09:22:03;;;;;;;20.03;14.53;;;;;;;24.77;100.00;95187.16;5012243;28;20238;-85
2021/05/01 09:24:30;;;;;;;26.20;20.57;;;;;;;24.58;100.00;95187.75;5012549;28;20194;-86
2021/05/01 09:26:57;;;;;;;11.43;7.93;;;;;;;24.35;100.00;95207.91;5012288;28;20196;-84
2021/05/01 09:29:32;;;;;;;13.40;9.93;;;;;;;24.25;100.00;95204.41;5012240;28;20282;-85
2021/05/01 09:32:01;;;;;;;18.33;13.10;;;;;;;24.12;100.00;95200.44;5012385;28;20190;-85
2021/05/01 09:34:44;;;;;;;22.00;15.57;;;;;;;24.02;100.00;95203.91;5012382;28;20199;-85
2021/05/01 09:37:13;;;;;;;34.47;22.07;;;;;;;24.18;100.00;95185.94;5011984;28;20187;-86
2021/05/01 09:39:48;;;;;;;12.60;8.27;;;;;;;24.27;100.00;95178.91;5012104;28;20281;-86
2021/05/01 09:42:17;;;;;;;11.70;8.07;;;;;;;24.09;100.00;95192.91;5012218;28;20277;-86
2021/05/01 09:44:44;;;;;;;18.20;8.60;;;;;;;24.09;100.00;95190.22;5012250;28;20286;-86
2021/05/01 09:47:16;;;;;;;9.03;5.53;;;;;;;24.00;100.00;95199.88;5011634;28;20195;-87
2021/05/01 09:49:45;;;;;;;10.60;9.43;;;;;;;24.17;100.00;95184.28;5012129;28;20227;-86
2021/05/01 09:52:14;;;;;;;11.43;8.13;;;;;;;24.41;100.00;95158.50;5011963;28;20195;-87
2021/05/01 09:57:40;;;;;;;11.77;8.37;;;;;;;24.70;100.00;95144.47;5012230;28;20223;-87
2021/05/01 10:00:22;;;;;;;9.57;8.00;;;;;;;24.87;100.00;95141.41;5012168;28;20187;-84
2021/05/01 10:02:50;;;;;;;21.13;7.43;;;;;;;25.03;100.00;95128.72;5015799;28;20191;-87
2021/05/01 10:05:17;;;;;;;12.23;7.43;;;;;;;25.12;100.00;95116.31;5015880;28;20681;-87
2021/05/01 10:07:48;;;;;;;10.03;6.13;;;;;;;25.17;100.00;95126.25;5015705;28;20281;-85
2021/05/01 10:10:15;;;;;;;15.67;7.90;;;;;;;25.33;100.00;95120.50;5015499;28;20224;-84
2021/05/01 10:12:44;;;;;;;15.53;9.47;;;;;;;25.25;100.00;95126.47;5015775;28;20330;-84
2021/05/01 10:15:16;;;;;;;19.20;9.40;;;;;;;24.99;100.00;95136.53;5015502;28;20664;-86
2021/05/01 10:17:45;;;;;;;16.17;9.63;;;;;;;24.97;100.00;95130.59;5015035;28;20735;-86
2021/05/01 10:20:15;;;;;;;11.93;8.23;;;;;;;24.79;100.00;95131.25;5016148;28;20230;-85
2021/05/01 10:22:43;;;;;;;14.53;9.37;;;;;;;24.79;100.00;95123.19;5014913;28;20258;-86
2021/05/01 10:25:12;;;;;;;10.13;6.03;;;;;;;24.77;100.00;95110.03;5015210;28;20783;-87
2021/05/01 10:27:48;;;;;;;8.57;6.27;;;;;;;24.81;100.00;95119.16;5015130;28;20238;-87
2021/05/01 10:30:28;;;;;;;15.10;7.10;;;;;;;24.98;100.00;95109.94;5015323;28;20290;-86
2021/05/01 10:32:58;;;;;;;7.53;4.47;;;;;;;24.93;100.00;95089.25;5015234;28;20313;-86
2021/05/01 10:35:30;;;;;;;9.37;6.93;;;;;;;24.99;100.00;95087.34;5014880;28;20200;-86
2021/05/01 10:37:58;;;;;;;9.20;6.77;;;;;;;24.76;100.00;95083.44;5015139;28;20266;-86
2021/05/01 10:40:41;;;;;;;15.00;7.57;;;;;;;24.60;100.00;95090.78;5014999;28;20238;-86
2021/05/01 10:43:14;;;;;;;12.50;5.90;;;;;;;24.71;100.00;95086.94;5014910;28;20188;-87
2021/05/01 10:45:52;;;;;;;13.53;7.90;;;;;;;24.58;100.00;95096.41;5015189;28;20230;-86
2021/05/01 10:48:19;;;;;;;10.67;6.07;;;;;;;24.49;100.00;95090.00;5014989;28;20208;-86
2021/05/01 10:51:03;;;;;;;12.27;7.00;;;;;;;24.38;100.00;95093.75;5014887;28;20239;-87
2021/05/01 10:53:30;;;;;;;14.20;5.67;;;;;;;24.44;100.00;95074.69;5014530;28;20190;-85
2021/05/01 10:55:58;;;;;;;12.20;6.27;;;;;;;24.47;100.00;95078.72;5015124;28;20648;-86
2021/05/01 10:58:43;;;;;;;13.00;7.03;;;;;;;25.04;100.00;95066.63;5013663;28;20287;-85
2021/05/01 11:01:12;;;;;;;9.50;4.90;;;;;;;25.03;100.00;95059.63;5013818;28;20223;-86
2021/05/01 11:03:44;;;;;;;10.97;5.80;;;;;;;24.78;100.00;95065.97;5013835;28;20206;-85
2021/05/01 11:06:21;;;;;;;21.97;13.83;;;;;;;24.94;100.00;95047.03;5014329;28;20191;-86
2021/05/01 11:08:55;;;;;;;9.60;7.13;;;;;;;24.94;100.00;95047.03;5013477;28;20215;-84
2021/05/01 11:11:29;;;;;;;11.90;7.20;;;;;;;24.87;100.00;95045.50;5014155;28;20661;-84
2021/05/01 11:13:56;;;;;;;7.83;6.60;;;;;;;24.85;100.00;95044.94;5012918;28;20278;-85
2021/05/01 11:16:31;;;;;;;9.57;5.50;;;;;;;25.14;100.00;95009.28;5014217;28;20231;-85
2021/05/01 11:19:01;;;;;;;15.07;5.57;;;;;;;25.55;100.00;94985.53;5014242;28;20183;-85
2021/05/01 11:21:30;;;;;;;7.67;5.70;;;;;;;25.91;100.00;94968.22;5014277;28;20203;-86
2021/05/01 11:23:57;;;;;;;8.07;5.97;;;;;;;25.92;100.00;94959.88;5013906;28;20215;-85
2021/05/01 11:26:27;;;;;;;11.07;5.47;;;;;;;26.14;100.00;94950.47;5014346;28;20198;-87